Time;durP1;ratioP1;P1;durP2;ratioP2;P2;SDS_P1;SDS_P2;PMS_P1;PMS_P2;Temp;Humidity;BMP_temperature;BMP_pressure;BME280_temperature;BME280_humidity;BME280_pressure;Samples;Min_cycle;Max_cycle;Signal;HPM_P1;HPM_P2
2022/04/11 00:00:34;;;;;;;5.10;2.60;;;7.60;46.40;;;;;;5061486;28;20400;-42
2022/04/11 00:03:02;;;;;;;7.18;3.38;;;7.60;46.40;;;;;;5061554;28;20061;-41
2022/04/11 00:05:31;;;;;;;5.70;2.83;;;7.60;46.40;;;;;;5061998;28;20075;-42
2022/04/11 00:07:58;;;;;;;8.13;2.97;;;7.60;46.40;;;;;;5062294;28;20055;-45
2022/04/11 00:10:26;;;;;;;5.70;3.30;;;7.60;46.40;;;;;;5061959;28;20052;-41
2022/04/11 00:13:01;;;;;;;6.53;3.13;;;7.60;46.50;;;;;;5059822;28;20476;-42
2022/04/11 00:15:29;;;;;;;8.55;3.33;;;7.60;46.50;;;;;;5061316;28;20429;-41
2022/04/11 00:17:56;;;;;;;5.60;3.03;;;7.60;46.90;;;;;;5063301;28;20504;-42
2022/04/11 00:20:24;;;;;;;11.23;3.50;;;7.60;46.50;;;;;;5062335;28;20052;-42
2022/04/11 00:22:53;;;;;;;5.55;3.25;;;7.60;46.50;;;;;;5061009;28;20063;-42
2022/04/11 00:25:20;;;;;;;6.28;3.33;;;7.60;46.60;;;;;;5058819;28;20052;-42
2022/04/11 00:27:48;;;;;;;7.15;3.00;;;7.60;47.00;;;;;;5063051;28;20044;-43
2022/04/11 00:30:16;;;;;;;8.10;3.38;;;7.60;46.50;;;;;;5061690;28;20047;-42
2022/04/11 00:32:44;;;;;;;7.13;2.97;;;7.60;46.60;;;;;;5060378;28;20048;-42
2022/04/11 00:35:13;;;;;;;8.55;3.42;;;7.60;46.60;;;;;;5060832;28;20053;-42
2022/04/11 00:37:41;;;;;;;6.80;3.08;;;7.60;46.60;;;;;;5062928;28;20056;-42
2022/04/11 00:40:11;;;;;;;7.50;3.35;;;7.60;46.60;;;;;;5073842;28;20067;-42
2022/04/11 00:42:39;;;;;;;8.93;3.88;;;7.60;46.70;;;;;;5079936;28;20052;-41
2022/04/11 00:45:07;;;;;;;7.72;3.53;;;7.60;46.70;;;;;;5081597;28;20403;-41
2022/04/11 00:47:35;;;;;;;11.60;3.58;;;7.50;46.70;;;;;;5082344;28;20064;-42
2022/04/11 00:50:05;;;;;;;6.15;3.40;;;7.50;46.80;;;;;;5081805;28;20060;-41
2022/04/11 00:52:34;;;;;;;7.07;3.13;;;7.50;46.80;;;;;;5079984;28;20056;-42
2022/04/11 00:55:02;;;;;;;6.47;3.30;;;7.50;46.80;;;;;;5081392;28;20191;-42
2022/04/11 00:57:31;;;;;;;9.18;3.33;;;7.50;46.90;;;;;;5080727;28;20059;-42
2022/04/11 01:00:00;;;;;;;12.20;3.33;;;7.50;46.90;;;;;;5082499;28;20048;-42
2022/04/11 01:02:28;;;;;;;9.27;3.97;;;7.50;47.00;;;;;;5078521;28;21103;-41
2022/04/11 01:04:55;;;;;;;6.00;3.10;;;7.50;47.00;;;;;;5080086;28;20048;-42
2022/04/11 01:07:23;;;;;;;8.60;3.58;;;7.40;47.00;;;;;;5081980;28;20055;-41
2022/04/11 01:09:50;;;;;;;4.97;3.22;;;7.40;47.00;;;;;;5080784;28;20052;-43
2022/04/11 01:12:18;;;;;;;9.10;3.30;;;7.40;47.00;;;;;;5079179;28;20048;-42
2022/04/11 01:14:47;;;;;;;8.88;3.78;;;7.40;47.10;;;;;;5082079;28;20518;-42
2022/04/11 01:17:14;;;;;;;6.13;2.97;;;7.40;47.10;;;;;;5080778;28;20056;-42
2022/04/11 01:19:42;;;;;;;7.43;3.17;;;7.40;47.00;;;;;;5082108;28;20052;-43
2022/04/11 01:22:11;;;;;;;11.23;3.55;;;7.40;47.00;;;;;;5079425;28;20055;-42
2022/04/11 01:24:39;;;;;;;7.10;3.20;;;7.40;47.10;;;;;;5079540;28;20052;-42
2022/04/11 01:27:07;;;;;;;9.52;3.40;;;7.40;47.10;;;;;;5081754;28;20063;-43
2022/04/11 01:29:35;;;;;;;8.30;3.38;;;7.40;47.10;;;;;;5081599;28;20055;-42
2022/04/11 01:32:04;;;;;;;6.35;2.75;;;7.40;47.10;;;;;;5079568;28;20059;-42
2022/04/11 01:34:32;;;;;;;7.75;3.33;;;7.40;47.10;;;;;;5080428;28;20056;-42
2022/04/11 01:36:59;;;;;;;8.23;3.30;;;7.40;47.60;;;;;;5079171;28;20052;-43
2022/04/11 01:39:28;;;;;;;8.52;4.00;;;7.40;47.20;;;;;;5077303;28;20072;-41
2022/04/11 01:41:55;;;;;;;6.93;3.35;;;7.40;47.20;;;;;;5079006;28;20381;-42
2022/04/11 01:44:23;;;;;;;8.10;3.65;;;7.40;47.30;;;;;;5080048;28;20047;-42
2022/04/11 01:46:50;;;;;;;7.68;3.42;;;7.40;47.20;;;;;;5077292;28;20052;-42
2022/04/11 01:49:18;;;;;;;8.05;3.33;;;7.40;47.30;;;;;;5080388;28;20408;-42
2022/04/11 01:51:46;;;;;;;8.18;3.80;;;7.40;47.30;;;;;;5080600;28;20048;-41
2022/04/11 01:54:13;;;;;;;6.80;2.92;;;7.40;47.30;;;;;;5080483;28;20063;-43
2022/04/11 01:56:42;;;;;;;7.97;3.30;;;7.40;47.30;;;;;;5081429;28;20051;-41
2022/04/11 01:59:09;;;;;;;9.68;3.40;;;7.40;47.30;;;;;;5080317;28;20074;-42
2022/04/11 02:01:37;;;;;;;5.45;3.13;;;7.40;47.30;;;;;;5080539;28;20052;-42
2022/04/11 02:04:05;;;;;;;6.30;3.22;;;7.40;47.30;;;;;;5079137;28;20048;-41
2022/04/11 02:06:32;;;;;;;8.48;3.50;;;7.30;47.30;;;;;;5080435;28;20052;-42
2022/04/11 02:09:01;;;;;;;7.50;2.92;;;7.40;47.30;;;;;;5080806;28;20059;-41
2022/04/11 02:11:28;;;;;;;9.07;3.60;;;7.40;47.30;;;;;;5080542;28;20499;-42
2022/04/11 02:13:57;;;;;;;8.57;2.88;;;7.30;47.30;;;;;;5081691;28;20044;-42
2022/04/11 02:16:25;;;;;;;7.65;2.92;;;7.30;47.30;;;;;;5080354;28;20052;-42
2022/04/11 02:18:53;;;;;;;8.00;2.90;;;7.30;47.30;;;;;;5081048;28;20048;-42
2022/04/11 02:21:20;;;;;;;6.10;3.03;;;7.40;47.30;;;;;;5079907;28;20048;-41
2022/04/11 02:23:48;;;;;;;7.32;2.88;;;7.40;47.30;;;;;;5080062;28;20059;-41
2022/04/11 02:26:18;;;;;;;7.28;3.15;;;7.30;47.20;;;;;;5080770;28;20056;-44
2022/04/11 02:28:46;;;;;;;7.47;3.22;;;7.40;47.30;;;;;;5081620;28;20052;-47
2022/04/11 02:31:15;;;;;;;7.10;3.38;;;7.40;47.30;;;;;;5078304;28;20044;-44
2022/04/11 02:33:42;;;;;;;7.22;3.28;;;7.40;47.30;;;;;;5081370;28;20088;-42
2022/04/11 02:36:10;;;;;;;9.55;3.70;;;7.40;47.20;;;;;;5080250;28;20056;-42
2022/04/11 02:38:37;;;;;;;6.60;3.20;;;7.40;47.20;;;;;;5080712;28;20043;-42
2022/04/11 02:41:05;;;;;;;6.97;2.60;;;7.40;47.20;;;;;;5059355;28;20056;-42
2022/04/11 02:43:32;;;;;;;8.60;3.75;;;7.40;47.20;;;;;;5058371;28;20523;-49
2022/04/11 02:46:00;;;;;;;9.35;3.00;;;7.40;47.30;;;;;;5060957;28;20048;-42
2022/04/11 02:48:28;;;;;;;6.85;2.80;;;7.40;47.20;;;;;;5058764;28;20056;-42
2022/04/11 02:50:56;;;;;;;5.15;2.83;;;7.40;47.20;;;;;;5060344;28;20407;-41
2022/04/11 02:53:23;;;;;;;10.52;3.67;;;7.40;47.20;;;;;;5057348;28;20059;-42
2022/04/11 02:55:51;;;;;;;8.60;3.53;;;7.40;47.20;;;;;;5059932;28;20469;-42
2022/04/11 02:58:18;;;;;;;8.65;3.17;;;7.40;47.30;;;;;;5061272;28;20059;-42
2022/04/11 03:00:46;;;;;;;9.27;3.53;;;7.40;47.10;;;;;;5058834;28;20044;-42
2022/04/11 03:03:13;;;;;;;7.53;3.20;;;7.40;47.10;;;;;;5058224;28;20063;-41
2022/04/11 03:05:42;;;;;;;9.32;3.17;;;7.40;47.20;;;;;;5059890;28;20044;-42
2022/04/11 03:08:10;;;;;;;7.78;3.88;;;7.40;47.20;;;;;;5060056;28;20052;-42
2022/04/11 03:10:37;;;;;;;9.70;3.78;;;7.40;47.20;;;;;;5060048;28;20060;-43
2022/04/11 03:13:05;;;;;;;5.53;2.95;;;7.40;47.20;;;;;;5061483;28;20049;-42
2022/04/11 03:15:32;;;;;;;9.35;2.67;;;7.40;47.20;;;;;;5062485;28;20055;-41
2022/04/11 03:18:00;;;;;;;9.07;3.33;;;7.40;47.20;;;;;;5063742;28;20056;-42
2022/04/11 03:20:27;;;;;;;9.00;3.25;;;7.40;47.10;;;;;;5063954;28;20381;-42
2022/04/11 03:22:57;;;;;;;7.63;3.28;;;7.40;47.10;;;;;;5061965;28;20052;-42
2022/04/11 03:25:25;;;;;;;6.18;2.53;;;7.40;47.20;;;;;;5060308;28;20051;-42
2022/04/11 03:27:53;;;;;;;6.85;2.65;;;7.40;47.10;;;;;;5063267;28;20416;-43
2022/04/11 03:30:20;;;;;;;5.47;2.90;;;7.40;47.10;;;;;;5060299;28;20429;-41
2022/04/11 03:32:48;;;;;;;10.15;3.15;;;7.40;47.10;;;;;;5062605;28;20052;-42
2022/04/11 03:35:15;;;;;;;5.93;2.92;;;7.40;47.00;;;;;;5062842;28;20404;-41
2022/04/11 03:37:43;;;;;;;8.38;2.90;;;7.40;47.00;;;;;;5063614;28;20051;-42
2022/04/11 03:40:13;;;;;;;6.45;3.05;;;7.40;47.10;;;;;;5074917;28;20508;-41
2022/04/11 03:42:40;;;;;;;4.93;2.50;;;7.40;47.10;;;;;;5082688;28;20899;-42
2022/04/11 03:45:11;;;;;;;7.25;2.90;;;7.40;47.10;;;;;;5082313;28;20419;-42
2022/04/11 03:47:39;;;;;;;5.72;2.67;;;7.40;47.10;;;;;;5083822;28;20047;-44
2022/04/11 03:50:07;;;;;;;8.27;2.90;;;7.40;47.10;;;;;;5083194;28;20514;-42
2022/04/11 03:52:35;;;;;;;7.35;2.80;;;7.40;47.20;;;;;;5081188;28;20063;-41
2022/04/11 03:55:04;;;;;;;7.72;3.22;;;7.40;47.20;;;;;;5081307;28;20071;-41
2022/04/11 03:57:33;;;;;;;5.70;2.90;;;7.40;47.20;;;;;;5082375;28;20431;-42
2022/04/11 04:00:01;;;;;;;7.78;2.83;;;7.40;47.10;;;;;;5082533;28;20500;-46
2022/04/11 04:02:28;;;;;;;7.50;2.95;;;7.40;47.10;;;;;;5080312;28;20488;-42
2022/04/11 04:04:55;;;;;;;8.23;3.17;;;7.40;47.10;;;;;;5081523;28;20056;-42
2022/04/11 04:07:23;;;;;;;6.43;3.17;;;7.40;47.10;;;;;;5081996;28;20520;-42
2022/04/11 04:09:51;;;;;;;7.82;2.40;;;7.50;47.30;;;;;;5082339;28;20044;-42
2022/04/11 04:12:20;;;;;;;6.07;2.78;;;7.40;47.20;;;;;;5080299;28;20056;-42
2022/04/11 04:14:49;;;;;;;5.65;2.80;;;7.40;47.20;;;;;;5083630;28;20056;-41
2022/04/11 04:17:17;;;;;;;5.82;2.83;;;7.40;47.30;;;;;;5073017;28;20052;-42
2022/04/11 04:19:44;;;;;;;9.45;2.90;;;7.40;47.30;;;;;;5081447;28;20052;-42
2022/04/11 04:22:12;;;;;;;7.47;2.78;;;7.40;47.30;;;;;;5080948;28;20059;-42
2022/04/11 04:24:40;;;;;;;4.85;2.78;;;7.40;47.30;;;;;;5080684;28;20055;-41
2022/04/11 04:27:08;;;;;;;6.32;2.72;;;7.40;47.30;;;;;;5081334;28;20048;-42
2022/04/11 04:29:36;;;;;;;5.20;2.83;;;7.50;47.40;;;;;;5079300;28;20056;-42
2022/04/11 04:32:06;;;;;;;6.32;2.40;;;7.50;47.30;;;;;;5080713;28;20052;-44
2022/04/11 04:34:33;;;;;;;7.63;3.40;;;7.40;47.30;;;;;;5082326;28;20052;-42
2022/04/11 04:37:02;;;;;;;7.13;3.20;;;7.50;47.40;;;;;;5080837;28;22892;-42
2022/04/11 04:39:29;;;;;;;9.82;3.85;;;7.50;47.30;;;;;;5081133;28;20064;-41
2022/04/11 04:45:37;;;;;;;4.90;2.63;;;7.50;47.40;;;;;;5085833;28;20662;-43
2022/04/11 04:48:38;;;;;;;6.30;2.92;;;7.50;47.40;;;;;;5085291;28;20066;-43
2022/04/11 04:55:14;;;;;;;21.55;8.73;;;7.40;47.40;;;;;;4976831;28;20085;-42
2022/04/11 04:58:30;;;;;;;8.27;3.58;;;7.40;47.40;;;;;;4940099;28;20057;-43
2022/04/11 05:01:53;;;;;;;;;;;;;;;;;;;;;
2022/04/11 05:08:20;;;;;;;8.23;2.70;;;7.40;47.60;;;;;;4819048;29;20388;-42
2022/04/11 05:10:48;;;;;;;7.53;3.17;;;7.40;47.70;;;;;;4818834;29;20061;-42
2022/04/11 05:13:15;;;;;;;7.70;3.15;;;7.30;47.70;;;;;;4964226;28;20072;-42
2022/04/11 05:15:46;;;;;;;6.68;3.30;;;7.30;47.80;;;;;;5040681;28;20480;-42
2022/04/11 05:18:13;;;;;;;11.20;3.63;;;7.30;47.90;;;;;;5078615;28;20656;-42
2022/04/11 05:20:41;;;;;;;8.27;3.08;;;7.30;48.00;;;;;;5077746;28;20062;-42
2022/04/11 05:23:11;;;;;;;10.43;3.72;;;7.20;48.10;;;;;;5079518;28;20499;-43
2022/04/11 05:25:38;;;;;;;5.78;3.13;;;7.30;48.30;;;;;;5076125;28;20412;-41
2022/04/11 05:28:06;;;;;;;8.48;3.60;;;7.20;48.20;;;;;;5080896;28;22595;-41
2022/04/11 05:30:35;;;;;;;64.35;23.63;;;7.20;48.40;;;;;;5078986;28;20052;-43
2022/04/11 05:33:03;;;;;;;17.23;6.93;;;7.20;48.40;;;;;;5078307;28;20411;-41
2022/04/11 05:35:31;;;;;;;7.93;3.65;;;7.20;48.50;;;;;;5080763;28;20059;-42
2022/04/11 05:37:58;;;;;;;10.07;3.40;;;7.20;48.60;;;;;;5081144;28;20047;-42
2022/04/11 05:40:27;;;;;;;6.55;3.40;;;7.20;48.70;;;;;;5079509;28;20056;-42
2022/04/11 05:42:54;;;;;;;10.73;3.58;;;7.20;48.90;;;;;;5079958;28;20404;-41
2022/04/11 05:45:22;;;;;;;11.27;3.75;;;7.30;49.00;;;;;;5078933;28;20415;-42
2022/04/11 05:47:49;;;;;;;6.85;3.63;;;7.30;48.90;;;;;;5080771;28;20130;-42
2022/04/11 05:50:17;;;;;;;7.97;3.83;;;7.30;49.00;;;;;;5079599;28;20052;-42
2022/04/11 05:52:45;;;;;;;7.32;3.50;;;7.40;49.10;;;;;;5081085;28;20043;-42
2022/04/11 05:55:13;;;;;;;7.72;3.40;;;7.40;49.10;;;;;;5075893;28;20056;-41
2022/04/11 05:57:43;;;;;;;21.92;8.15;;;7.40;49.10;;;;;;5074434;28;20052;-41
2022/04/11 06:00:11;;;;;;;22.67;9.93;;;7.40;49.20;;;;;;5078917;28;20062;-42
2022/04/11 06:02:39;;;;;;;11.02;4.90;;;7.50;49.20;;;;;;5077797;28;20047;-42
2022/04/11 06:05:08;;;;;;;7.65;3.55;;;7.60;49.20;;;;;;5080962;28;20052;-42
2022/04/11 06:07:36;;;;;;;8.93;3.58;;;7.60;49.20;;;;;;5076525;28;20064;-45
2022/04/11 06:10:04;;;;;;;8.88;3.63;;;7.70;49.30;;;;;;5077404;28;20075;-42
2022/04/11 06:12:31;;;;;;;6.63;3.10;;;7.70;49.30;;;;;;5075339;28;20056;-41
2022/04/11 06:15:00;;;;;;;11.02;4.13;;;7.80;49.40;;;;;;5078842;28;20060;-41
2022/04/11 06:17:28;;;;;;;7.22;3.85;;;7.80;49.40;;;;;;5079176;28;20475;-42
2022/04/11 06:19:57;;;;;;;8.55;3.75;;;7.90;49.50;;;;;;5079649;28;20063;-42
2022/04/11 06:22:25;;;;;;;8.93;3.42;;;8.00;49.50;;;;;;5075491;28;20044;-41
2022/04/11 06:25:00;;;;;;;8.77;3.42;;;8.00;49.40;;;;;;5078400;28;20051;-41
2022/04/11 06:27:28;;;;;;;11.05;4.10;;;8.10;49.50;;;;;;5079263;28;20059;-43
2022/04/11 06:29:57;;;;;;;8.90;3.63;;;8.20;49.60;;;;;;5078195;28;20056;-44
2022/04/11 06:32:28;;;;;;;9.75;3.75;;;8.20;49.60;;;;;;5079806;28;20397;-42
2022/04/11 06:34:56;;;;;;;9.43;4.10;;;8.30;49.60;;;;;;5080455;28;20056;-42
2022/04/11 06:37:24;;;;;;;10.50;3.78;;;8.30;49.50;;;;;;5080225;28;20495;-41
2022/04/11 06:39:52;;;;;;;12.48;4.40;;;8.40;49.70;;;;;;5068553;28;20052;-41
2022/04/11 06:42:20;;;;;;;14.07;4.28;;;8.50;49.40;;;;;;5058852;28;20053;-44
2022/04/11 06:44:47;;;;;;;9.23;3.50;;;8.50;49.30;;;;;;5061246;28;20071;-41
2022/04/11 06:47:15;;;;;;;9.52;3.90;;;8.60;49.20;;;;;;5059654;28;20420;-42
2022/04/11 06:49:44;;;;;;;11.30;4.05;;;8.60;49.20;;;;;;5063114;28;20507;-42
2022/04/11 06:52:11;;;;;;;9.85;4.35;;;8.70;49.20;;;;;;5063586;28;20690;-43
2022/04/11 06:54:38;;;;;;;9.20;4.13;;;8.80;49.20;;;;;;5062382;28;20052;-43
2022/04/11 06:57:06;;;;;;;9.30;4.03;;;8.80;49.20;;;;;;5063495;28;20044;-42
2022/04/11 06:59:34;;;;;;;9.52;3.85;;;8.90;49.10;;;;;;5061886;28;20060;-42
2022/04/11 07:02:01;;;;;;;13.00;4.30;;;8.90;49.00;;;;;;5063186;28;20408;-42
2022/04/11 07:04:29;;;;;;;6.82;3.95;;;9.00;49.10;;;;;;5063202;28;20484;-42
2022/04/11 07:06:58;;;;;;;8.80;3.72;;;9.10;49.10;;;;;;5059521;28;20053;-42
2022/04/11 07:09:27;;;;;;;11.68;4.53;;;9.10;49.20;;;;;;5063062;28;20048;-41
2022/04/11 07:11:55;;;;;;;9.57;3.88;;;9.20;49.20;;;;;;5059752;28;20048;-42
2022/04/11 07:14:22;;;;;;;6.40;3.70;;;9.20;49.20;;;;;;5061884;28;20059;-42
2022/04/11 07:16:51;;;;;;;10.40;4.05;;;9.40;49.30;;;;;;5061960;28;20051;-42
2022/04/11 07:19:19;;;;;;;7.80;3.75;;;9.40;49.30;;;;;;5059372;28;20057;-47
2022/04/11 07:21:47;;;;;;;7.45;4.18;;;9.40;49.30;;;;;;5061956;28;20052;-42
2022/04/11 07:24:16;;;;;;;13.48;4.63;;;9.50;49.30;;;;;;5061176;28;20066;-42
2022/04/11 07:26:43;;;;;;;29.95;11.32;;;9.60;49.40;;;;;;5057744;28;20057;-44
2022/04/11 07:29:11;;;;;;;11.20;4.78;;;9.70;49.50;;;;;;5061420;28;20419;-44
2022/04/11 07:31:39;;;;;;;14.15;4.47;;;9.70;49.30;;;;;;5061623;28;20053;-42
2022/04/11 07:34:06;;;;;;;10.25;4.43;;;9.80;49.30;;;;;;5064242;28;20060;-41
2022/04/11 07:36:34;;;;;;;9.32;4.13;;;9.90;49.10;;;;;;5061277;28;20059;-42
2022/04/11 07:39:01;;;;;;;12.35;4.05;;;10.00;49.10;;;;;;5063082;28;20063;-42
2022/04/11 07:41:30;;;;;;;10.38;3.70;;;10.00;49.00;;;;;;5079147;28;20055;-41
2022/04/11 07:43:58;;;;;;;8.23;3.90;;;10.10;49.10;;;;;;5084209;28;20055;-41
2022/04/11 07:46:25;;;;;;;11.23;4.07;;;10.20;49.00;;;;;;5081087;28;20067;-41
2022/04/11 07:48:53;;;;;;;9.63;3.67;;;10.30;48.90;;;;;;5081620;28;20052;-41
2022/04/11 07:51:20;;;;;;;7.05;4.07;;;10.40;48.80;;;;;;5080913;28;20052;-43
2022/04/11 07:53:48;;;;;;;8.82;3.88;;;10.50;48.50;;;;;;5081150;28;20047;-49
2022/04/11 07:56:15;;;;;;;10.57;3.90;;;10.50;48.30;;;;;;5080281;28;20067;-45
2022/04/11 07:58:44;;;;;;;13.35;4.38;;;10.60;48.30;;;;;;5082850;28;20427;-44
2022/04/11 08:01:16;;;;;;;7.50;3.97;;;10.70;48.00;;;;;;5081575;28;20052;-45
2022/04/11 08:03:44;;;;;;;8.00;3.08;;;10.70;47.50;;;;;;5080225;28;20047;-44
2022/04/11 08:06:12;;;;;;;9.32;3.72;;;10.80;47.30;;;;;;5082120;28;20056;-47
2022/04/11 08:08:44;;;;;;;15.65;3.67;;;10.90;47.20;;;;;;5081016;28;20408;-46
2022/04/11 08:11:12;;;;;;;8.18;3.42;;;11.00;47.20;;;;;;5081293;28;20590;-46
2022/04/11 08:13:40;;;;;;;9.40;3.33;;;11.00;47.10;;;;;;5083172;28;20051;-45
2022/04/11 08:16:10;;;;;;;7.28;3.15;;;11.00;46.50;;;;;;5079978;28;20059;-42
2022/04/11 08:18:38;;;;;;;11.63;3.20;;;11.10;46.20;;;;;;5079854;28;20412;-43
2022/04/11 08:21:06;;;;;;;7.30;3.13;;;11.20;46.20;;;;;;5082634;28;20059;-41
2022/04/11 08:23:33;;;;;;;9.88;3.08;;;11.30;46.10;;;;;;5083257;28;20066;-42
2022/04/11 08:26:01;;;;;;;9.02;3.40;;;11.30;45.80;;;;;;5082419;28;20071;-42
2022/04/11 08:28:29;;;;;;;19.55;8.82;;;11.40;45.80;;;;;;5081171;28;20491;-42
2022/04/11 08:30:56;;;;;;;8.40;3.58;;;11.50;45.90;;;;;;5082588;28;20500;-41
2022/04/11 08:33:25;;;;;;;8.25;2.70;;;11.50;45.80;;;;;;5080787;28;20048;-42
2022/04/11 08:35:53;;;;;;;6.68;2.60;;;11.60;45.40;;;;;;5079850;28;20060;-42
2022/04/11 08:38:21;;;;;;;5.63;2.40;;;11.60;45.30;;;;;;5080418;28;20499;-42
2022/04/11 08:40:50;;;;;;;9.75;2.67;;;11.70;45.80;;;;;;5063090;28;20052;-42
2022/04/11 08:43:21;;;;;;;9.45;3.08;;;11.80;45.40;;;;;;5058221;28;20056;-41
2022/04/11 08:45:50;;;;;;;7.60;3.30;;;11.90;45.20;;;;;;5058831;28;20048;-41
2022/04/11 08:48:17;;;;;;;6.85;2.65;;;11.90;45.10;;;;;;5060263;28;20447;-41
2022/04/11 08:50:46;;;;;;;7.18;2.47;;;12.00;44.90;;;;;;5061272;28;20060;-42
2022/04/11 08:53:14;;;;;;;7.43;3.10;;;12.00;44.70;;;;;;5059077;28;20048;-42
2022/04/11 08:55:42;;;;;;;5.50;2.40;;;12.10;44.80;;;;;;5058021;28;20056;-43
2022/04/11 08:58:10;;;;;;;9.93;2.80;;;12.20;44.60;;;;;;5057281;28;20049;-42
2022/04/11 09:00:37;;;;;;;6.78;2.60;;;12.20;44.20;;;;;;5061317;28;20061;-42
2022/04/11 09:03:06;;;;;;;5.78;2.17;;;12.30;44.10;;;;;;5058620;28;20059;-42
2022/04/11 09:05:34;;;;;;;7.47;2.90;;;12.40;44.30;;;;;;5056087;28;20071;-41
2022/04/11 09:08:03;;;;;;;9.05;2.65;;;12.40;44.20;;;;;;5057395;28;20119;-42
2022/04/11 09:10:32;;;;;;;7.03;2.85;;;12.50;44.10;;;;;;5057021;28;20496;-41
2022/04/11 09:13:01;;;;;;;6.00;2.30;;;12.60;43.70;;;;;;5056786;28;20052;-42
2022/04/11 09:15:30;;;;;;;4.13;1.80;;;12.70;43.50;;;;;;5057362;28;20053;-41
2022/04/11 09:18:00;;;;;;;3.75;1.92;;;12.70;43.50;;;;;;5055910;28;21189;-45
2022/04/11 09:20:29;;;;;;;4.88;2.20;;;12.80;43.60;;;;;;5058893;28;20057;-42
2022/04/11 09:22:57;;;;;;;6.15;1.73;;;12.80;43.30;;;;;;5058328;28;20119;-42
2022/04/11 09:35:46;;;;;;;4.65;2.30;;;13.20;42.30;;;;;;5075578;22;20061;-42
2022/04/11 09:38:15;;;;;;;6.55;2.25;;;13.30;42.00;;;;;;5060090;28;20051;-42
2022/04/11 09:40:45;;;;;;;4.75;2.28;;;13.30;42.30;;;;;;5061069;28;20427;-41
2022/04/11 09:43:13;;;;;;;4.40;2.10;;;13.30;42.40;;;;;;5060122;28;20071;-42
2022/04/11 09:45:42;;;;;;;6.30;2.60;;;13.40;41.90;;;;;;5061875;28;20079;-42
2022/04/11 09:48:11;;;;;;;3.75;2.08;;;13.40;41.40;;;;;;5060983;28;20049;-42
2022/04/11 09:50:38;;;;;;;4.75;2.17;;;13.50;41.60;;;;;;5061478;28;20385;-42
2022/04/11 09:53:15;;;;;;;8.60;2.90;;;13.50;41.20;;;;;;5060754;28;20418;-42
2022/04/11 09:55:44;;;;;;;4.78;2.30;;;13.60;41.40;;;;;;5060855;28;20060;-48
2022/04/11 09:58:12;;;;;;;7.22;2.80;;;13.60;41.30;;;;;;5059933;28;20061;-44
2022/04/11 10:00:42;;;;;;;6.57;2.40;;;13.70;41.40;;;;;;5060262;28;20063;-42
2022/04/11 10:03:09;;;;;;;13.25;2.38;;;13.80;41.60;;;;;;5061202;28;20052;-42
2022/04/11 10:05:38;;;;;;;6.47;2.55;;;13.80;41.10;;;;;;5061677;28;20055;-44
2022/04/11 10:08:07;;;;;;;5.47;2.72;;;13.90;42.10;;;;;;5061179;28;20526;-42
2022/04/11 10:10:39;;;;;;;13.80;3.28;;;13.90;41.70;;;;;;5059385;28;20519;-42
2022/04/11 10:13:08;;;;;;;6.55;2.42;;;13.90;41.10;;;;;;5060671;28;20063;-42
2022/04/11 10:15:37;;;;;;;9.88;2.65;;;14.00;40.80;;;;;;5061770;28;20404;-42
2022/04/11 10:18:06;;;;;;;8.73;3.70;;;14.00;41.00;;;;;;5059577;28;20052;-44
2022/04/11 10:20:37;;;;;;;5.53;2.53;;;14.00;41.40;;;;;;5063494;28;20056;-42
2022/04/11 10:23:17;;;;;;;6.35;3.00;;;14.10;41.50;;;;;;5065100;28;20060;-42
2022/04/11 10:25:50;;;;;;;8.98;3.33;;;14.10;41.40;;;;;;5064740;28;20111;-43
2022/04/11 10:28:20;;;;;;;8.38;2.85;;;14.10;41.60;;;;;;5066039;28;20052;-42
2022/04/11 10:31:05;;;;;;;7.65;2.72;;;14.10;41.30;;;;;;5064894;28;20056;-42
2022/04/11 10:33:56;;;;;;;6.22;2.58;;;14.20;41.10;;;;;;5065214;28;20060;-42
2022/04/11 10:36:33;;;;;;;4.53;2.25;;;14.10;40.70;;;;;;5060804;28;20044;-43
2022/04/11 10:39:24;;;;;;;5.57;2.40;;;14.20;40.80;;;;;;5081560;28;20040;-43
2022/04/11 10:42:10;;;;;;;6.00;2.30;;;14.20;39.60;;;;;;5077127;28;20048;-42
2022/04/11 10:44:39;;;;;;;6.30;2.42;;;14.20;39.30;;;;;;5081172;28;20055;-42
2022/04/11 10:47:33;;;;;;;5.88;1.92;;;14.20;39.50;;;;;;5080599;28;20051;-43
2022/04/11 10:50:20;;;;;;;10.27;2.30;;;14.20;39.20;;;;;;5084643;28;20051;-45
2022/04/11 10:53:07;;;;;;;4.00;1.80;;;14.30;39.90;;;;;;5080466;28;20052;-42
2022/04/11 10:55:35;;;;;;;6.25;2.28;;;14.40;39.90;;;;;;5078334;28;20522;-42
2022/04/11 10:58:04;;;;;;;6.85;2.42;;;14.40;40.00;;;;;;5081104;28;20056;-42
2022/04/11 11:00:32;;;;;;;4.65;2.00;;;14.40;40.10;;;;;;5082383;28;20055;-42
2022/04/11 11:03:06;;;;;;;8.20;2.30;;;14.50;39.90;;;;;;5083091;28;20802;-42
2022/04/11 11:05:36;;;;;;;3.28;1.80;;;14.50;39.50;;;;;;5080245;28;20056;-42
2022/04/11 11:08:25;;;;;;;5.25;2.08;;;14.50;39.40;;;;;;5080686;28;20067;-42
2022/04/11 11:10:54;;;;;;;5.20;2.03;;;14.60;39.40;;;;;;5075173;28;20052;-42
2022/04/11 11:13:27;;;;;;;7.25;2.10;;;14.60;39.10;;;;;;5077746;28;20051;-42
2022/04/11 11:15:55;;;;;;;6.85;2.42;;;14.70;38.90;;;;;;5078703;28;20060;-42
2022/04/11 11:22:08;;;;;;;5.82;2.20;;;14.80;39.30;;;;;;5102130;28;20486;-42
2022/04/11 11:24:36;;;;;;;10.43;1.95;;;14.80;39.40;;;;;;5083455;28;20059;-45
2022/04/11 11:27:06;;;;;;;7.05;2.22;;;14.90;39.90;;;;;;5083763;28;20074;-42
2022/04/11 11:29:42;;;;;;;8.55;2.40;;;14.90;39.90;;;;;;5084949;28;20052;-45
2022/04/11 11:32:12;;;;;;;4.32;2.35;;;14.90;39.80;;;;;;5083604;28;20052;-42
2022/04/11 11:34:40;;;;;;;7.72;2.63;;;14.90;40.40;;;;;;5080912;28;20495;-43
2022/04/11 11:37:10;;;;;;;4.25;2.17;;;14.90;40.20;;;;;;5063473;28;20071;-42
2022/04/11 11:39:39;;;;;;;4.65;2.20;;;14.90;40.00;;;;;;5064185;28;20060;-42
2022/04/11 11:42:09;;;;;;;6.22;2.25;;;14.90;39.60;;;;;;5062614;28;20049;-48
2022/04/11 11:44:45;;;;;;;6.60;2.28;;;15.00;40.00;;;;;;5043241;28;20053;-42
2022/04/11 11:47:12;;;;;;;6.68;1.88;;;15.10;40.00;;;;;;5063009;28;20417;-42
2022/04/11 11:49:41;;;;;;;4.88;2.08;;;15.10;40.00;;;;;;5062799;28;20052;-42
2022/04/11 11:52:13;;;;;;;3.50;1.55;;;15.20;39.90;;;;;;5060195;28;20055;-41
2022/04/11 11:54:42;;;;;;;7.20;2.15;;;15.20;39.00;;;;;;5063655;28;20052;-42
2022/04/11 11:57:14;;;;;;;4.25;2.10;;;15.20;38.80;;;;;;5063613;28;20062;-42
2022/04/11 11:59:53;;;;;;;6.78;1.95;;;15.30;38.00;;;;;;5062705;28;20041;-42
2022/04/11 12:05:21;;;;;;;4.93;1.70;;;15.40;38.00;;;;;;5069800;28;20523;-42
2022/04/11 12:07:49;;;;;;;3.15;1.52;;;15.50;37.50;;;;;;5062310;28;20059;-42
2022/04/11 12:10:18;;;;;;;11.10;2.28;;;15.50;37.80;;;;;;5061701;28;20424;-41
2022/04/11 12:12:47;;;;;;;6.45;2.00;;;15.50;38.20;;;;;;5058901;28;20067;-42
2022/04/11 12:15:17;;;;;;;9.00;2.00;;;15.50;37.80;;;;;;5062071;28;20056;-42
2022/04/11 12:17:47;;;;;;;6.38;2.03;;;15.60;37.90;;;;;;5062463;28;20064;-41
2022/04/11 12:20:17;;;;;;;4.80;1.88;;;15.60;38.10;;;;;;5062446;28;20060;-42
2022/04/11 12:23:00;;;;;;;6.90;2.22;;;15.60;38.00;;;;;;5062471;28;20067;-42
2022/04/11 12:25:29;;;;;;;4.30;1.70;;;15.60;38.00;;;;;;5062493;28;20063;-49
2022/04/11 12:28:19;;;;;;;5.95;2.10;;;15.70;38.10;;;;;;5062281;28;20052;-42
2022/04/11 12:30:50;;;;;;;6.95;2.50;;;15.60;38.10;;;;;;5060877;28;20057;-43
2022/04/11 12:33:34;;;;;;;6.97;1.92;;;15.70;38.10;;;;;;5061529;28;20060;-42
2022/04/11 12:36:10;;;;;;;3.38;1.80;;;15.60;37.40;;;;;;5063211;28;20057;-43
2022/04/11 12:38:46;;;;;;;4.78;2.17;;;15.60;37.50;;;;;;5062037;28;20060;-42
2022/04/11 12:41:35;;;;;;;5.57;2.20;;;15.60;37.40;;;;;;5054496;28;20049;-43
2022/04/11 12:44:08;;;;;;;5.03;1.98;;;15.60;37.30;;;;;;5062826;28;20145;-42
2022/04/11 12:46:39;;;;;;;4.82;1.95;;;15.60;37.20;;;;;;5056007;28;20056;-42
2022/04/11 12:49:09;;;;;;;4.25;1.70;;;15.60;37.20;;;;;;5060776;28;20496;-42
2022/04/11 12:51:37;;;;;;;3.03;1.60;;;15.60;37.50;;;;;;5053271;28;20052;-42
2022/04/11 12:54:08;;;;;;;4.18;1.80;;;15.60;37.50;;;;;;5060323;28;20057;-44
2022/04/11 12:56:37;;;;;;;3.53;1.80;;;15.60;37.20;;;;;;5061732;28;20625;-42
2022/04/11 12:59:05;;;;;;;5.25;1.90;;;15.60;37.50;;;;;;5058359;28;20053;-42
2022/04/11 13:01:53;;;;;;;3.58;1.73;;;15.60;37.40;;;;;;5061336;28;20439;-42
2022/04/11 13:04:21;;;;;;;2.85;1.65;;;15.60;36.70;;;;;;5062679;28;20089;-42
2022/04/11 13:06:50;;;;;;;6.03;2.17;;;15.60;37.30;;;;;;5062318;28;20484;-42
2022/04/11 13:09:18;;;;;;;4.22;1.98;;;15.60;37.30;;;;;;5061481;28;20059;-42
2022/04/11 13:11:47;;;;;;;4.80;1.98;;;15.70;37.00;;;;;;5061165;28;20057;-42
2022/04/11 13:14:17;;;;;;;7.28;2.20;;;15.70;36.80;;;;;;5062988;28;20060;-42
2022/04/11 13:19:31;;;;;;;3.17;1.80;;;15.70;36.50;;;;;;5061764;28;20059;-42
2022/04/11 13:22:00;;;;;;;4.13;1.85;;;15.70;36.60;;;;;;5052224;28;20064;-42
2022/04/11 13:24:28;;;;;;;4.88;1.88;;;15.70;36.70;;;;;;5054386;28;20052;-44
2022/04/11 13:26:55;;;;;;;3.45;1.70;;;15.70;36.50;;;;;;5055467;28;20060;-42
2022/04/11 13:29:23;;;;;;;4.45;1.85;;;15.80;36.70;;;;;;5054155;28;20052;-42
2022/04/11 13:31:51;;;;;;;3.17;1.60;;;15.80;36.70;;;;;;5059700;28;20047;-42
2022/04/11 13:34:18;;;;;;;4.05;1.85;;;15.80;36.60;;;;;;5056490;28;20106;-42
2022/04/11 13:36:47;;;;;;;3.80;1.90;;;15.80;36.20;;;;;;5079262;28;20381;-42